Time;durP1;ratioP1;P1;durP2;ratioP2;P2;SDS_P1;SDS_P2;PMS_P1;PMS_P2;Temp;Humidity;BMP_temperature;BMP_pressure;BME280_temperature;BME280_humidity;BME280_pressure;Samples;Min_cycle;Max_cycle;Signal;HPM_P1;HPM_P2
2021/01/18 00:00:33;;;;;;;23.00;5.53;;;;;;;3.14;88.79;102474.41;5095444;28;20452;-76
2021/01/18 00:02:59;;;;;;;26.52;5.97;;;;;;;3.14;88.51;102485.09;5086749;28;20024;-76
2021/01/18 00:05:24;;;;;;;22.13;6.10;;;;;;;3.13;88.92;102480.75;5098726;28;20031;-75
2021/01/18 00:07:51;;;;;;;28.37;6.70;;;;;;;3.10;88.55;102477.34;5089774;28;20335;-76
2021/01/18 00:10:22;;;;;;;22.63;5.38;;;;;;;3.09;88.65;102466.81;5097231;28;20077;-76
2021/01/18 00:12:49;;;;;;;29.02;6.15;;;;;;;3.06;88.31;102469.75;5083791;28;20024;-76
2021/01/18 00:15:16;;;;;;;23.38;6.72;;;;;;;3.04;89.05;102466.41;5098525;28;20094;-76
2021/01/18 00:17:42;;;;;;;28.88;6.13;;;;;;;2.99;89.40;102463.31;5091099;28;20038;-76
2021/01/18 00:20:08;;;;;;;26.42;5.22;;;;;;;2.99;88.73;102464.16;5098104;28;20032;-76
2021/01/18 00:22:37;;;;;;;23.35;5.32;;;;;;;2.99;89.16;102465.97;5088591;28;20078;-76
2021/01/18 00:25:09;;;;;;;31.55;6.55;;;;;;;2.96;89.11;102467.09;5081965;28;20039;-75
2021/01/18 00:27:35;;;;;;;22.00;5.63;;;;;;;2.93;89.54;102469.19;5092456;28;20052;-76
2021/01/18 00:30:00;;;;;;;27.35;7.43;;;;;;;2.92;89.43;102472.84;5094525;28;20079;-76
2021/01/18 00:32:26;;;;;;;23.70;5.43;;;;;;;2.90;89.10;102464.16;5092969;28;20056;-76
2021/01/18 00:34:51;;;;;;;22.87;6.17;;;;;;;2.89;89.47;102465.16;5091394;28;20031;-76
2021/01/18 00:37:16;;;;;;;29.47;6.50;;;;;;;2.87;89.50;102462.59;5092423;28;20025;-75
2021/01/18 00:39:43;;;;;;;39.23;8.73;;;;;;;2.88;89.74;102458.97;5089978;28;20417;-75
2021/01/18 00:42:09;;;;;;;29.23;7.15;;;;;;;2.87;89.46;102461.75;5085212;28;20448;-76
2021/01/18 00:44:35;;;;;;;31.92;7.45;;;;;;;2.85;89.88;102469.91;5089527;28;20035;-76
2021/01/18 00:47:00;;;;;;;23.97;6.77;;;;;;;2.84;90.06;102461.06;5097325;28;20098;-76
2021/01/18 00:49:25;;;;;;;30.87;8.20;;;;;;;2.84;89.75;102460.22;5092982;28;20032;-76
2021/01/18 00:51:50;;;;;;;26.80;5.93;;;;;;;2.83;89.70;102456.72;5093021;28;20050;-76
2021/01/18 00:54:16;;;;;;;18.93;6.40;;;;;;;2.78;90.42;102458.09;5084700;28;20307;-76
2021/01/18 00:56:41;;;;;;;26.63;7.03;;;;;;;2.76;90.14;102457.41;5089645;28;20024;-75
2021/01/18 00:59:07;;;;;;;29.00;7.47;;;;;;;2.76;90.09;102457.41;5091460;28;20431;-76
2021/01/18 01:01:33;;;;;;;32.25;7.43;;;;;;;2.76;90.23;102450.22;5096097;28;20097;-76
2021/01/18 01:03:58;;;;;;;31.00;8.27;;;;;;;2.74;90.28;102446.03;5088778;28;20033;-76
2021/01/18 01:06:23;;;;;;;25.33;7.33;;;;;;;2.73;90.12;102444.31;5081405;28;20097;-76
2021/01/18 01:08:49;;;;;;;28.23;7.27;;;;;;;2.68;90.03;102436.72;5090459;28;20028;-76
2021/01/18 01:11:14;;;;;;;24.00;7.60;;;;;;;2.63;90.18;102428.28;5092062;28;20028;-76
2021/01/18 01:13:39;;;;;;;28.83;7.40;;;;;;;2.56;91.36;102429.84;5087558;28;20032;-76
2021/01/18 01:16:05;;;;;;;32.87;7.60;;;;;;;2.47;91.27;102425.34;5080389;28;20059;-76
2021/01/18 01:18:33;;;;;;;33.92;9.82;;;;;;;2.41;91.40;102431.22;5089084;28;20440;-76
2021/01/18 01:20:58;;;;;;;25.05;7.80;;;;;;;2.33;91.98;102434.59;5089833;28;20024;-76
2021/01/18 01:23:27;;;;;;;28.63;9.30;;;;;;;2.27;92.03;102425.31;5094441;28;20401;-76
2021/01/18 01:25:55;;;;;;;28.63;8.27;;;;;;;2.25;92.20;102429.09;5090672;28;20129;-76
2021/01/18 01:28:20;;;;;;;25.55;8.45;;;;;;;2.26;92.20;102425.44;5084730;28;20114;-76
2021/01/18 01:30:50;;;;;;;39.80;11.50;;;;;;;2.25;92.39;102415.75;5078473;28;20085;-75
2021/01/18 01:33:18;;;;;;;28.95;9.32;;;;;;;2.20;92.48;102412.66;5090446;28;20421;-76
2021/01/18 01:35:43;;;;;;;32.58;10.27;;;;;;;2.15;93.17;102414.88;5083313;28;20047;-75
2021/01/18 01:38:09;;;;;;;36.53;9.50;;;;;;;2.14;92.51;102413.19;5075379;28;20021;-76
2021/01/18 01:40:34;;;;;;;30.13;10.67;;;;;;;2.09;93.31;102413.59;5074533;28;20375;-75
2021/01/18 01:43:01;;;;;;;32.93;12.17;;;;;;;2.14;93.07;102415.84;5075198;28;20024;-76
2021/01/18 01:45:27;;;;;;;26.50;11.20;;;;;;;2.15;93.10;102415.75;5075617;28;20054;-76
2021/01/18 01:47:54;;;;;;;30.80;12.50;;;;;;;2.23;92.19;102420.38;5075870;28;20028;-76
2021/01/18 01:50:35;;;;;;;38.20;12.05;;;;;;;2.26;92.56;102414.78;5074578;28;20315;-76
2021/01/18 01:53:23;;;;;;;30.63;12.32;;;;;;;2.27;91.74;102419.97;5075446;28;20393;-76
2021/01/18 01:55:50;;;;;;;31.60;11.93;;;;;;;2.32;92.21;102414.22;5073354;28;20414;-76
2021/01/18 01:58:15;;;;;;;;;;;;;;;2.33;91.73;102416.72;5074111;28;20044;-76
2021/01/18 02:00:42;;;;;;;34.78;11.65;;;;;;;2.35;92.53;102415.78;5075152;28;19919;-76
2021/01/18 02:03:21;;;;;;;28.13;11.75;;;;;;;2.38;92.07;102407.47;5076152;28;20024;-76
2021/01/18 02:05:49;;;;;;;32.03;12.70;;;;;;;2.41;91.79;102405.38;5071905;28;20039;-76
2021/01/18 02:08:14;;;;;;;28.52;11.85;;;;;;;2.45;91.52;102400.59;5075098;28;20077;-76
2021/01/18 02:10:42;;;;;;;35.00;12.23;;;;;;;2.47;91.52;102407.47;5073660;28;20036;-76
2021/01/18 02:13:34;;;;;;;31.75;11.77;;;;;;;2.45;91.37;102409.47;5075228;28;20031;-76
2021/01/18 02:16:10;;;;;;;29.08;12.77;;;;;;;2.44;91.78;102406.91;5071037;28;20073;-75
2021/01/18 02:18:51;;;;;;;41.90;13.52;;;;;;;2.42;91.84;102400.88;5075164;28;20029;-76
2021/01/18 02:21:38;;;;;;;31.75;13.00;;;;;;;2.42;91.45;102407.06;5075388;28;20027;-76
2021/01/18 02:24:04;;;;;;;;;;;;;;;2.41;91.76;102402.72;5074248;28;20095;-75
2021/01/18 02:27:06;;;;;;;27.92;12.20;;;;;;;2.43;91.49;102408.72;5074994;28;20027;-75
2021/01/18 02:29:46;;;;;;;40.10;14.98;;;;;;;2.44;91.60;102418.47;5074462;28;20037;-75
2021/01/18 02:32:49;;;;;;;31.45;13.82;;;;;;;2.42;92.14;102416.91;5074494;28;20102;-75
2021/01/18 02:35:21;;;;;;;31.88;14.30;;;;;;;2.41;92.42;102417.88;5069170;28;20032;-76
2021/01/18 02:38:04;;;;;;;39.25;15.73;;;;;;;2.39;92.18;102417.16;5074093;28;20445;-76
2021/01/18 02:40:56;;;;;;;28.58;14.48;;;;;;;2.41;91.79;102420.56;5070231;28;20360;-76
2021/01/18 02:43:28;;;;;;;37.42;16.30;;;;;;;2.39;92.60;102415.38;5074464;28;20041;-75
2021/01/18 02:45:55;;;;;;;33.42;15.18;;;;;;;2.38;92.25;102415.47;5074305;28;20123;-76
2021/01/18 02:48:21;;;;;;;35.55;16.58;;;;;;;2.33;92.43;102418.56;5075485;28;20024;-75
2021/01/18 02:50:48;;;;;;;39.97;17.17;;;;;;;2.27;92.51;102414.63;5075346;28;20058;-75
2021/01/18 02:53:14;;;;;;;42.10;17.17;;;;;;;2.26;92.84;102415.63;5075317;28;20020;-75
2021/01/18 02:55:39;;;;;;;43.67;18.53;;;;;;;2.28;93.49;102410.97;5074929;28;20338;-76
2021/01/18 02:58:07;;;;;;;33.77;16.17;;;;;;;2.37;93.41;102413.81;5074532;28;20418;-76
2021/01/18 03:00:46;;;;;;;37.90;16.67;;;;;;;2.40;92.87;102413.53;5072621;28;20035;-76
2021/01/18 03:03:44;;;;;;;36.42;16.95;;;;;;;2.42;92.53;102422.22;5066536;28;20036;-76
2021/01/18 03:06:29;;;;;;;45.80;18.08;;;;;;;2.44;92.50;102421.13;5064417;28;20032;-75
2021/01/18 03:09:11;;;;;;;41.08;17.20;;;;;;;2.44;92.28;102425.59;5074912;28;20036;-75
2021/01/18 03:11:40;;;;;;;40.50;17.65;;;;;;;2.40;92.33;102430.41;5067611;28;20111;-76
2021/01/18 03:14:43;;;;;;;35.28;17.70;;;;;;;2.32;92.44;102435.56;5078933;28;20107;-75
2021/01/18 03:17:13;;;;;;;37.58;17.80;;;;;;;2.27;92.87;102429.81;5036423;28;20099;-75
2021/01/18 03:19:43;;;;;;;39.50;18.05;;;;;;;2.22;92.99;102418.69;5024419;28;20059;-76
2021/01/18 03:22:10;;;;;;;38.08;17.45;;;;;;;2.14;93.18;102419.38;5037455;28;20037;-75
2021/01/18 03:24:41;;;;;;;44.30;18.92;;;;;;;2.10;93.92;102417.09;5036855;28;20031;-76
2021/01/18 03:27:07;;;;;;;49.67;19.77;;;;;;;2.14;94.42;102423.88;5036631;28;20049;-76
2021/01/18 03:29:35;;;;;;;45.20;19.03;;;;;;;2.10;94.21;102423.31;5019818;28;20053;-76
2021/01/18 03:32:03;;;;;;;44.80;20.33;;;;;;;2.07;93.93;102415.56;5036914;28;20037;-75
2021/01/18 03:34:28;;;;;;;43.15;20.17;;;;;;;2.09;94.13;102413.59;5037042;28;20097;-75
2021/01/18 03:36:54;;;;;;;41.10;21.07;;;;;;;2.08;94.51;102416.41;5036751;28;20127;-75
2021/01/18 03:39:19;;;;;;;45.67;20.47;;;;;;;2.07;94.90;102407.56;5036502;28;20108;-75
2021/01/18 03:41:45;;;;;;;39.30;19.80;;;;;;;2.10;94.30;102417.09;5020037;28;20397;-75
2021/01/18 03:44:10;;;;;;;;;;;;;;;2.05;94.32;102420.22;5037164;28;20092;-75
2021/01/18 03:46:36;;;;;;;43.53;19.97;;;;;;;2.05;94.31;102407.72;5036401;28;20266;-75
2021/01/18 03:49:01;;;;;;;45.07;21.10;;;;;;;2.04;95.04;102410.50;5019856;28;20284;-75
2021/01/18 03:51:30;;;;;;;48.40;21.23;;;;;;;2.01;94.83;102408.13;5036578;28;20061;-75
2021/01/18 03:53:56;;;;;;;45.95;21.60;;;;;;;2.03;95.25;102408.81;5044643;28;20036;-76
2021/01/18 03:56:22;;;;;;;48.33;22.25;;;;;;;2.09;94.50;102408.25;5077150;28;20112;-75
2021/01/18 03:58:47;;;;;;;43.20;21.47;;;;;;;2.11;95.23;102400.13;5078198;28;20497;-76
2021/01/18 04:01:13;;;;;;;52.63;23.13;;;;;;;2.12;94.85;102404.50;5077890;28;20413;-75
2021/01/18 04:03:38;;;;;;;57.07;23.23;;;;;;;2.13;95.21;102401.66;5078446;28;20048;-75
2021/01/18 04:06:03;;;;;;;47.73;23.70;;;;;;;2.15;94.92;102405.06;5077849;28;20434;-75
2021/01/18 04:08:29;;;;;;;53.30;23.40;;;;;;;2.16;94.63;102401.41;5077893;28;20032;-76
2021/01/18 04:10:54;;;;;;;51.23;24.33;;;;;;;2.25;94.60;102403.25;5077864;28;20175;-75
2021/01/18 04:13:19;;;;;;;53.77;23.93;;;;;;;2.31;94.50;102394.69;5078142;28;20028;-76
2021/01/18 04:15:45;;;;;;;55.13;22.23;;;;;;;2.39;94.36;102401.13;5078061;28;20043;-75
2021/01/18 04:18:10;;;;;;;49.03;23.53;;;;;;;2.39;94.06;102399.34;5077772;28;20039;-76
2021/01/18 04:20:35;;;;;;;49.37;22.90;;;;;;;2.40;94.07;102397.50;5077395;28;20031;-75
2021/01/18 04:23:04;;;;;;;52.83;23.63;;;;;;;2.35;94.12;102391.75;5077916;28;20028;-76
2021/01/18 04:25:30;;;;;;;56.25;23.92;;;;;;;2.34;93.93;102388.22;5076680;28;20119;-76
2021/01/18 04:28:02;;;;;;;52.78;22.95;;;;;;;2.31;94.56;102386.69;5076998;28;20030;-76
2021/01/18 04:30:35;;;;;;;49.10;23.33;;;;;;;2.28;94.13;102388.78;5077312;28;20482;-75
2021/01/18 04:33:06;;;;;;;46.78;23.52;;;;;;;2.25;94.39;102392.56;5076835;28;20039;-75
2021/01/18 04:35:34;;;;;;;56.03;23.75;;;;;;;2.21;94.62;102380.50;5077566;28;20051;-76
2021/01/18 04:38:00;;;;;;;48.65;23.33;;;;;;;2.15;95.15;102373.03;5076603;28;20408;-75
2021/01/18 04:40:28;;;;;;;47.38;23.48;;;;;;;2.12;95.05;102375.97;5076908;28;20314;-75
2021/01/18 04:42:54;;;;;;;62.88;25.98;;;;;;;2.15;95.16;102383.72;5076647;28;20028;-76
2021/01/18 04:45:22;;;;;;;69.18;26.38;;;;;;;2.11;95.59;102378.78;5077591;28;20306;-75
2021/01/18 04:47:51;;;;;;;58.85;26.77;;;;;;;2.10;95.22;102375.28;5077132;28;20024;-75
2021/01/18 04:50:18;;;;;;;57.78;27.40;;;;;;;2.09;95.85;102384.25;5076827;28;20115;-76
2021/01/18 04:52:51;;;;;;;59.00;27.95;;;;;;;2.06;95.67;102381.88;5077041;28;20066;-75
2021/01/18 04:55:27;;;;;;;53.13;27.27;;;;;;;2.02;95.37;102378.63;5077088;28;20111;-76
2021/01/18 04:58:10;;;;;;;59.57;27.90;;;;;;;2.01;96.04;102378.78;5077462;28;20027;-76
2021/01/18 05:00:44;;;;;;;63.70;27.85;;;;;;;2.01;95.70;102379.63;5076692;28;20032;-75
2021/01/18 05:03:12;;;;;;;64.22;27.23;;;;;;;2.04;95.84;102376.66;5076944;28;20020;-76
2021/01/18 05:05:55;;;;;;;70.00;30.90;;;;;;;1.97;95.56;102380.03;5076618;28;20040;-75
2021/01/18 05:09:00;;;;;;;64.57;29.08;;;;;;;1.98;95.86;102382.53;5077141;28;20035;-76
2021/01/18 05:11:26;;;;;;;65.18;29.65;;;;;;;2.02;96.35;102367.13;5065985;28;20032;-76
2021/01/18 05:13:51;;;;;;;;;;;;;;;1.95;95.96;102374.84;5076837;28;20032;-75
2021/01/18 05:16:17;;;;;;;65.82;28.10;;;;;;;2.00;96.27;102375.25;5076011;28;19915;-76
2021/01/18 05:18:42;;;;;;;66.13;28.90;;;;;;;2.04;96.20;102367.81;5076598;28;20044;-75
2021/01/18 05:21:10;;;;;;;62.10;28.77;;;;;;;2.05;96.22;102366.84;5076780;28;20032;-76
2021/01/18 05:23:44;;;;;;;70.43;28.60;;;;;;;1.96;95.74;102367.66;5076533;28;20169;-75
2021/01/18 05:26:28;;;;;;;67.20;30.52;;;;;;;1.96;96.25;102367.66;5075594;28;20031;-76
2021/01/18 05:28:55;;;;;;;68.72;28.98;;;;;;;1.97;96.03;102372.84;5076311;28;20044;-76
2021/01/18 05:31:27;;;;;;;67.30;27.85;;;;;;;1.91;96.13;102369.91;5076339;28;20032;-76
2021/01/18 05:33:56;;;;;;;73.03;29.30;;;;;;;1.89;96.55;102366.50;5075711;28;20055;-76
2021/01/18 05:36:48;;;;;;;76.55;29.67;;;;;;;1.89;96.77;102362.03;5076160;28;20020;-76
2021/01/18 05:39:17;;;;;;;68.72;28.65;;;;;;;1.89;96.60;102366.50;5070717;28;20314;-76
2021/01/18 05:41:45;;;;;;;66.80;28.75;;;;;;;1.89;96.32;102366.50;5075186;28;20082;-75
2021/01/18 05:44:11;;;;;;;67.10;28.23;;;;;;;1.90;96.39;102358.38;5076390;28;20029;-75
2021/01/18 05:46:39;;;;;;;72.25;29.77;;;;;;;1.92;96.47;102367.09;5075646;28;20133;-75
2021/01/18 05:49:20;;;;;;;92.20;31.75;;;;;;;1.94;96.37;102372.28;5075933;28;20028;-75
2021/01/18 05:51:50;;;;;;;80.50;30.00;;;;;;;1.93;95.89;102367.94;5075881;28;20032;-75
2021/01/18 05:54:24;;;;;;;62.20;27.80;;;;;;;1.90;96.37;102362.84;5076166;28;20058;-75
2021/01/18 05:56:52;;;;;;;66.50;27.58;;;;;;;1.91;96.23;102372.56;5075615;28;20094;-75
2021/01/18 05:59:22;;;;;;;64.85;28.02;;;;;;;1.88;96.17;102364.84;5076381;28;20027;-75
2021/01/18 06:01:49;;;;;;;70.78;28.02;;;;;;;1.90;96.36;102369.03;5075932;28;20028;-76
2021/01/18 06:04:16;;;;;;;60.05;27.38;;;;;;;1.88;95.78;102364.84;5076034;28;20025;-74
2021/01/18 06:06:44;;;;;;;72.65;27.27;;;;;;;1.88;96.31;102368.34;5075938;28;20345;-75
2021/01/18 06:09:09;;;;;;;73.90;28.70;;;;;;;1.91;96.32;102364.56;5075584;28;20028;-75
2021/01/18 06:11:35;;;;;;;62.13;27.33;;;;;;;1.94;95.79;102356.28;5075573;28;20035;-75
2021/01/18 06:14:05;;;;;;;68.37;27.40;;;;;;;1.92;95.77;102352.91;5075831;28;20029;-75
2021/01/18 06:16:32;;;;;;;61.38;26.38;;;;;;;1.92;95.84;102361.75;5075824;28;20403;-76
2021/01/18 06:19:07;;;;;;;62.00;28.05;;;;;;;1.90;95.99;102358.38;5075483;28;20107;-75
2021/01/18 06:21:41;;;;;;;69.40;27.55;;;;;;;1.89;96.09;102350.50;5073890;28;20056;-77
2021/01/18 06:24:27;;;;;;;63.22;27.08;;;;;;;1.87;95.66;102357.81;5074560;28;20036;-75
2021/01/18 06:26:52;;;;;;;62.88;24.60;;;;;;;1.82;95.46;102346.72;5075627;28;20024;-75
2021/01/18 06:29:37;;;;;;;49.83;24.57;;;;;;;1.81;95.38;102345.88;5073689;28;20434;-76
2021/01/18 06:32:04;;;;;;;59.00;25.92;;;;;;;1.80;95.85;102344.16;5074311;28;20025;-78
2021/01/18 06:34:30;;;;;;;61.65;25.15;;;;;;;1.82;95.28;102344.06;5075429;28;20090;-79
2021/01/18 06:36:56;;;;;;;69.70;26.63;;;;;;;1.83;96.27;102346.56;5075895;28;20020;-77
2021/01/18 06:39:24;;;;;;;60.97;26.02;;;;;;;1.82;95.46;102346.72;5075037;28;20345;-79
2021/01/18 06:41:58;;;;;;;64.20;25.88;;;;;;;1.84;95.71;102352.75;5074538;28;20040;-79
2021/01/18 06:44:34;;;;;;;62.60;26.60;;;;;;;1.85;95.47;102349.94;5075669;28;20090;-77
2021/01/18 06:47:00;;;;;;;62.90;26.48;;;;;;;1.85;95.98;102349.94;5079411;28;20032;-77
2021/01/18 06:49:27;;;;;;;71.17;26.40;;;;;;;1.83;95.81;102351.91;5079630;28;20070;-77
2021/01/18 06:51:57;;;;;;;69.15;26.27;;;;;;;1.79;95.47;102348.66;5078921;28;20032;-76
2021/01/18 06:54:27;;;;;;;60.63;25.35;;;;;;;1.87;95.83;102342.66;5079301;28;20032;-77
2021/01/18 06:57:01;;;;;;;52.95;24.58;;;;;;;1.86;95.51;102350.81;5079315;28;20031;-75
2021/01/18 06:59:35;;;;;;;60.03;25.52;;;;;;;1.83;95.04;102351.91;5078185;28;20074;-75
2021/01/18 07:02:21;;;;;;;59.47;23.55;;;;;;;1.80;95.56;102349.50;5080486;28;20043;-75
2021/01/18 07:04:48;;;;;;;63.53;25.35;;;;;;;1.83;95.76;102345.72;5087902;28;20020;-75
2021/01/18 07:07:26;;;;;;;56.40;24.17;;;;;;;1.83;95.32;102351.91;5094509;28;20025;-75
2021/01/18 07:09:57;;;;;;;60.33;24.13;;;;;;;1.83;96.03;102348.41;5098158;28;20035;-77
2021/01/18 07:12:23;;;;;;;62.20;25.52;;;;;;;1.75;96.11;102339.25;5085096;28;20032;-76
2021/01/18 07:14:57;;;;;;;55.28;26.27;;;;;;;1.78;95.87;102344.31;5080626;28;20025;-76
2021/01/18 07:17:30;;;;;;;53.95;25.48;;;;;;;1.79;96.19;102346.00;5065218;28;20366;-75
2021/01/18 07:19:58;;;;;;;54.85;25.33;;;;;;;1.81;96.35;102343.22;5080775;28;20048;-76
2021/01/18 07:22:27;;;;;;;59.88;24.77;;;;;;;1.84;95.98;102344.75;5080003;28;20043;-76
2021/01/18 07:24:58;;;;;;;56.25;24.50;;;;;;;1.82;95.92;102344.88;5066861;28;20078;-76
2021/01/18 07:27:25;;;;;;;52.67;24.35;;;;;;;1.85;96.13;102341.09;5080639;28;20112;-76
2021/01/18 07:29:51;;;;;;;58.85;25.65;;;;;;;1.85;95.73;102338.41;5081014;28;20085;-76
2021/01/18 07:32:17;;;;;;;63.28;25.45;;;;;;;1.89;95.49;102334.50;5077733;28;20365;-76
2021/01/18 07:34:43;;;;;;;59.50;25.30;;;;;;;1.89;95.87;102332.69;5081695;28;20020;-76
2021/01/18 07:37:10;;;;;;;59.83;25.67;;;;;;;1.91;95.38;102340.56;5080389;28;20709;-76
2021/01/18 07:39:46;;;;;;;57.65;25.38;;;;;;;1.90;95.84;102352.19;5081623;28;20055;-76
2021/01/18 07:42:30;;;;;;;60.00;26.42;;;;;;;1.94;95.48;102342.94;5078616;28;20028;-75
2021/01/18 07:45:11;;;;;;;56.50;24.88;;;;;;;1.98;95.11;102349.69;5078704;28;20028;-76
2021/01/18 07:47:55;;;;;;;58.72;26.02;;;;;;;1.98;95.49;102339.00;5078772;28;20099;-76
2021/01/18 07:50:33;;;;;;;61.33;24.10;;;;;;;2.02;95.18;102346.59;5068793;28;20039;-76
2021/01/18 07:53:18;;;;;;;56.22;24.60;;;;;;;2.07;94.74;102348.84;5079471;28;20107;-76
2021/01/18 07:55:43;;;;;;;53.38;23.55;;;;;;;2.10;95.23;102355.72;5083528;28;20413;-75
2021/01/18 07:58:21;;;;;;;61.43;23.10;;;;;;;2.14;94.79;102360.66;5080465;28;20027;-76
2021/01/18 08:00:51;;;;;;;57.42;23.48;;;;;;;2.14;94.42;102363.31;5083448;28;20037;-76
2021/01/18 08:03:22;;;;;;;46.55;21.67;;;;;;;2.16;94.59;102364.03;5079603;28;20430;-76
2021/01/18 08:05:48;;;;;;;50.20;21.20;;;;;;;2.15;94.80;102357.03;5083230;28;20073;-76
2021/01/18 08:08:14;;;;;;;55.13;22.02;;;;;;;2.17;94.51;102368.41;5080837;28;20099;-75
2021/01/18 08:11:02;;;;;;;51.30;22.58;;;;;;;2.18;94.14;102361.22;5083117;28;20437;-76
2021/01/18 08:13:40;;;;;;;52.90;21.15;;;;;;;2.18;94.47;102362.06;5080499;28;20017;-76
2021/01/18 08:16:09;;;;;;;58.40;20.95;;;;;;;2.20;94.05;102364.63;5081594;28;20380;-76
2021/01/18 08:18:34;;;;;;;52.08;21.67;;;;;;;2.16;94.14;102364.03;5080624;28;20025;-76
2021/01/18 08:21:00;;;;;;;49.97;20.93;;;;;;;2.16;94.12;102372.06;5082918;28;20609;-77
2021/01/18 08:23:54;;;;;;;49.50;22.20;;;;;;;2.17;93.89;102364.88;5079392;28;20037;-76
2021/01/18 08:26:20;;;;;;;46.80;21.52;;;;;;;2.17;93.60;102370.22;5054935;28;20041;-76
2021/01/18 08:28:48;;;;;;;48.90;21.77;;;;;;;2.20;93.87;102372.63;5040749;28;20152;-76
2021/01/18 08:31:14;;;;;;;53.53;22.98;;;;;;;2.19;93.53;102368.25;5045630;28;20056;-76
2021/01/18 08:33:40;;;;;;;49.97;21.50;;;;;;;2.24;93.73;102372.19;5040966;28;20026;-76
2021/01/18 08:36:06;;;;;;;46.03;21.77;;;;;;;2.28;93.20;102375.44;5055255;28;20320;-76
2021/01/18 08:38:31;;;;;;;52.40;21.52;;;;;;;2.30;92.91;102370.81;5039018;28;20190;-76
2021/01/18 08:41:02;;;;;;;41.57;20.37;;;;;;;2.32;92.97;102377.69;5046965;28;20104;-77
2021/01/18 08:43:45;;;;;;;45.65;21.05;;;;;;;2.37;92.79;102371.09;5044464;28;20355;-76
2021/01/18 08:46:31;;;;;;;42.88;21.50;;;;;;;2.40;92.67;102368.16;5055360;28;20334;-76
2021/01/18 08:49:19;;;;;;;43.45;20.85;;;;;;;2.41;92.13;102370.66;5055021;28;20101;-76
2021/01/18 08:51:46;;;;;;;47.60;21.58;;;;;;;2.41;92.04;102378.69;5055474;28;20520;-76
2021/01/18 08:54:12;;;;;;;45.78;20.02;;;;;;;2.44;92.78;102385.53;5055518;28;20072;-76
2021/01/18 08:56:39;;;;;;;42.93;21.70;;;;;;;2.48;92.27;102378.94;5055173;28;20060;-76
2021/01/18 08:59:14;;;;;;;47.13;21.90;;;;;;;2.53;91.81;102384.72;5055372;28;20400;-76
2021/01/18 09:01:40;;;;;;;41.75;21.27;;;;;;;2.55;91.55;102385.44;5054149;28;20033;-76
2021/01/18 09:04:08;;;;;;;44.63;22.57;;;;;;;2.57;91.72;102383.44;5055781;28;20410;-76
2021/01/18 09:06:40;;;;;;;49.28;24.38;;;;;;;2.60;91.29;102388.53;5057072;28;20423;-76
2021/01/18 09:09:08;;;;;;;42.28;23.10;;;;;;;2.63;91.08;102382.03;5053662;28;20027;-76
2021/01/18 09:11:33;;;;;;;53.33;23.42;;;;;;;2.63;90.94;102374.84;5057128;28;20029;-76
2021/01/18 09:14:04;;;;;;;45.58;23.48;;;;;;;2.67;91.27;102378.94;5057099;28;20036;-76
2021/01/18 09:16:29;;;;;;;43.85;23.83;;;;;;;2.69;90.75;102363.63;5055940;28;20055;-76
2021/01/18 09:19:05;;;;;;;42.40;24.93;;;;;;;2.72;91.68;102359.81;5056636;28;20025;-77
2021/01/18 09:21:32;;;;;;;53.40;24.87;;;;;;;2.76;90.49;102362.06;5056888;28;20051;-77
2021/01/18 09:24:07;;;;;;;44.80;24.30;;;;;;;2.82;90.41;102368.66;5056675;28;20078;-76
2021/01/18 09:26:33;;;;;;;55.85;25.85;;;;;;;2.83;90.46;102367.66;5055828;28;20044;-77
2021/01/18 09:28:58;;;;;;;46.58;23.65;;;;;;;2.84;90.08;102364.88;5060417;28;20119;-76
2021/01/18 09:31:24;;;;;;;41.57;22.77;;;;;;;2.86;89.63;102358.53;5076669;28;20032;-77
2021/01/18 09:33:52;;;;;;;46.03;24.40;;;;;;;2.88;89.66;102353.88;5076661;28;20426;-76
2021/01/18 09:36:19;;;;;;;44.03;23.83;;;;;;;2.91;89.70;102354.44;5076524;28;20028;-76
2021/01/18 09:38:47;;;;;;;45.90;24.13;;;;;;;2.96;89.82;102354.00;5076262;28;20055;-76
2021/01/18 09:41:15;;;;;;;37.92;22.55;;;;;;;2.97;89.63;102355.69;5076492;28;20039;-76
2021/01/18 09:43:41;;;;;;;48.47;23.58;;;;;;;3.00;89.33;102358.09;5076434;28;20368;-76
2021/01/18 09:46:07;;;;;;;45.50;23.83;;;;;;;3.05;89.47;102363.84;5075445;28;20418;-77
2021/01/18 09:48:32;;;;;;;46.30;23.63;;;;;;;3.10;89.10;102356.22;5076302;28;20062;-77
2021/01/18 09:51:06;;;;;;;42.75;23.00;;;;;;;3.15;90.07;102351.28;5076103;28;20078;-77
2021/01/18 09:53:32;;;;;;;39.17;21.20;;;;;;;3.14;88.88;102360.31;5071964;28;20040;-76
2021/01/18 09:56:01;;;;;;;44.25;21.90;;;;;;;3.19;88.61;102363.38;5076698;28;20031;-78
2021/01/18 09:58:32;;;;;;;38.65;19.67;;;;;;;3.23;88.24;102353.25;5076157;28;20020;-77
2021/01/18 10:01:00;;;;;;;35.33;19.70;;;;;;;3.23;88.16;102346.06;5076007;28;20070;-77
2021/01/18 10:03:32;;;;;;;33.33;18.05;;;;;;;3.24;87.98;102350.41;5076215;28;20070;-78
2021/01/18 10:06:10;;;;;;;31.20;16.67;;;;;;;3.27;88.56;102347.47;5075016;28;20333;-78
2021/01/18 10:08:46;;;;;;;33.33;16.30;;;;;;;3.28;87.96;102345.63;5076087;28;20020;-80
2021/01/18 10:11:21;;;;;;;32.97;15.18;;;;;;;3.28;87.97;102341.13;5062821;28;20065;-81
2021/01/18 10:14:00;;;;;;;34.05;15.93;;;;;;;3.33;87.97;102338.00;5074910;28;20115;-80
2021/01/18 10:16:26;;;;;;;52.05;17.13;;;;;;;3.34;87.59;102334.34;5074610;28;20035;-79
2021/01/18 10:18:52;;;;;;;36.72;15.82;;;;;;;3.38;87.68;102337.56;5074771;28;20020;-80
2021/01/18 10:21:17;;;;;;;38.78;16.25;;;;;;;3.47;87.57;102326.00;5075491;28;20024;-79
2021/01/18 10:23:47;;;;;;;37.97;14.57;;;;;;;3.50;86.99;102329.19;5068058;28;20364;-80
2021/01/18 10:26:18;;;;;;;32.20;13.18;;;;;;;3.58;87.05;102320.44;5075053;28;20385;-79
2021/01/18 10:29:05;;;;;;;30.95;14.20;;;;;;;3.60;86.73;102321.13;5074867;28;20032;-79
2021/01/18 10:31:33;;;;;;;40.45;14.10;;;;;;;3.64;86.63;102314.47;5074591;28;20492;-79
2021/01/18 10:34:16;;;;;;;29.58;12.60;;;;;;;3.71;86.13;102304.00;5088015;28;20405;-79
2021/01/18 10:36:45;;;;;;;36.00;15.52;;;;;;;3.75;86.53;102287.50;5058347;28;20020;-79
2021/01/18 10:39:28;;;;;;;34.65;12.60;;;;;;;3.88;86.46;102292.50;5069182;28;20032;-77
2021/01/18 10:42:00;;;;;;;32.25;13.25;;;;;;;3.91;85.09;102292.22;5059067;28;20029;-77
2021/01/18 10:44:25;;;;;;;26.65;12.25;;;;;;;3.93;84.69;102276.00;5072017;28;20102;-78
2021/01/18 10:46:51;;;;;;;24.43;11.47;;;;;;;3.95;84.35;102287.38;5074573;28;20024;-78
2021/01/18 10:49:33;;;;;;;31.87;10.93;;;;;;;3.99;85.00;102286.09;5074700;28;20029;-77
2021/01/18 10:52:03;;;;;;;26.35;10.80;;;;;;;4.05;84.58;102293.50;5074562;28;20032;-78
2021/01/18 10:54:29;;;;;;;27.13;9.73;;;;;;;4.05;84.16;102293.50;5075433;28;20086;-79
2021/01/18 10:56:58;;;;;;;24.33;10.50;;;;;;;4.09;83.43;102297.56;5075322;28;20025;-79
2021/01/18 10:59:24;;;;;;;31.85;10.35;;;;;;;4.10;82.84;102288.56;5076439;28;20028;-79
2021/01/18 11:02:03;;;;;;;28.25;10.23;;;;;;;4.16;83.09;102297.81;5083042;28;20193;-79
2021/01/18 11:04:29;;;;;;;32.72;9.93;;;;;;;4.17;83.58;102294.97;5069104;28;20028;-79
2021/01/18 11:06:59;;;;;;;26.67;10.85;;;;;;;4.23;83.11;102293.50;5077661;28;20050;-79
2021/01/18 11:09:32;;;;;;;22.73;9.80;;;;;;;4.29;83.39;102284.84;5072828;28;20031;-79
2021/01/18 11:11:59;;;;;;;28.38;9.73;;;;;;;4.30;83.06;102274.00;5084246;28;20077;-80
2021/01/18 11:14:25;;;;;;;22.58;9.15;;;;;;;4.29;82.18;102274.97;5089370;28;20024;-79
2021/01/18 11:17:07;;;;;;;25.60;8.52;;;;;;;4.36;82.56;102273.38;5079256;28;20045;-79
2021/01/18 11:19:36;;;;;;;24.30;8.68;;;;;;;4.42;83.44;102276.41;5066371;28;20448;-79
2021/01/18 11:22:02;;;;;;;25.55;10.63;;;;;;;4.39;82.50;102266.84;5078101;28;20040;-79
2021/01/18 11:24:28;;;;;;;;;;;;;;;4.46;82.10;102259.03;5082520;28;20016;-79
2021/01/18 11:26:53;;;;;;;28.10;11.53;;;;;;;4.41;82.87;102258.69;5078146;28;20324;-79
2021/01/18 11:29:21;;;;;;;31.47;10.43;;;;;;;4.46;83.19;102264.41;5079877;28;20751;-79
2021/01/18 11:31:47;;;;;;;28.15;11.07;;;;;;;4.49;82.82;102266.75;5079955;28;20336;-77
2021/01/18 11:34:14;;;;;;;24.63;12.02;;;;;;;4.50;82.48;102266.63;5082443;28;20078;-79